Latest Coastal Weather Observations for Kalumburu

IDW60701

Issued at 11:13 am WST Saturday 5 December 2020 (issued every 10 minutes, with the page automatically refreshed every 10 minutes)

About coastal observations | Map of coastal stations | Coastal observations for WA | Marine services | Other Formats
Station Details ID: 001019 Name: KALUMBURU Lat: -14.30 Lon: 126.65 Height: 23.0 m
Data from the previous 72 hours. | See also: Recent months at Kalumburu
Date/Time
WST
Wind Sea
Height
m
Swell Vis
km
Cloud Weather Temp
°C
Press
MSL
hPa
Rain since
9am
mm
Dir  Spd
kts
Gust
kts
Height
m
Period
s
Dir
05/11:00am ENE 9 16 - - - - - - - 28.3 1009.6 0.0
05/10:30am NE 11 18 - - - - - - - 29.4 1009.1 0.0
05/10:00am ENE 7 11 - - - - - - - 31.8 1008.9 0.0
05/09:30am ENE 5 8 - - - - - - - 31.8 1009.1 0.0
05/09:00am ESE 3 8 - - - - - - - 31.6 1009.6 0.0
05/08:30am ENE 4 7 - - - - - - - 30.8 1010.0 0.0
05/08:00am SSE 3 5 - - - - - - - 30.5 1009.7 0.0
05/07:30am SE 5 7 - - - - - - - 30.2 1010.1 0.0
05/07:00am SE 5 7 - - - - - - - 30.1 1010.0 0.0
05/06:30am SSE 1 5 - - - - - - - 29.4 1009.7 0.0
05/06:00am CALM 0 0 - - - - - - - 27.3 1009.3 0.0
05/05:30am CALM 0 0 - - - - - - - 26.4 1008.9 0.0
05/05:00am S 1 3 - - - - - - - 26.1 1008.4 0.0
05/04:30am SSE 2 4 - - - - - - - 26.2 1008.1 0.0
05/04:00am ESE 3 4 - - - - - - - 26.6 1007.8 0.0
05/03:30am ESE 3 5 - - - - - - - 26.2 1007.4 0.0
05/03:00am CALM 0 3 - - - - - - - 26.7 1007.4 0.0
05/02:30am E 4 5 - - - - - - - 27.2 1007.3 0.0
05/02:00am CALM 0 0 - - - - - - - 27.0 1007.1 0.0
05/01:30am CALM 0 4 - - - - - - - 27.1 1007.0 0.0
05/01:00am E 2 4 - - - - - - - 27.1 1007.3 0.0
05/12:30am E 3 4 - - - - - - - 27.9 1007.7 0.0
05/12:00am SSE 4 6 - - - - - - - 28.3 1007.8 0.0
 
Date/Time
WST
Wind Sea
Height
m
Swell Vis
km
Cloud Weather Temp
°C
Press
MSL
hPa
Rain since
9am
mm
Dir  Spd
kts
Gust
kts
Height
m
Period
s
Dir
04/11:30pm E 6 8 - - - - - - - 29.1 1008.7 0.0
04/11:00pm ENE 5 8 - - - - - - - 29.8 1009.1 0.0
04/10:30pm E 4 7 - - - - - - - 29.9 1009.2 0.0
04/10:00pm E 4 6 - - - - - - - 29.9 1009.3 0.0
04/09:30pm ENE 4 6 - - - - - - - 30.0 1009.0 0.0
04/09:00pm NE 3 5 - - - - - - - 30.1 1008.9 0.0
04/08:30pm NNE 3 5 - - - - - - - 29.7 1008.7 0.0
04/08:00pm NNE 3 6 - - - - - - - 29.8 1008.1 0.0
04/07:30pm N 4 5 - - - - - - - 30.1 1007.6 0.0
04/07:00pm NNE 6 8 - - - - - - - 30.6 1006.9 0.0
04/06:30pm N 5 8 - - - - - - - 31.0 1006.3 0.0
04/06:00pm N 8 13 - - - - - - - 31.5 1005.6 0.0
04/05:30pm NNW 8 13 - - - - - - - 32.0 1005.0 0.0
04/05:00pm N 9 12 - - - - - - - 32.2 1005.0 0.0
04/04:30pm NNW 9 13 - - - - - - - 32.6 1004.4 0.0
04/04:00pm N 9 13 - - - - - - - 32.9 1003.9 0.0
04/03:30pm NNW 11 15 - - - - - - - 32.9 1003.9 0.0
04/03:00pm NNW 8 12 - - - - - - - 34.2 1004.0 0.0
04/02:30pm N 8 13 - - - - - - - 33.8 1004.4 0.0
04/02:00pm N 10 15 - - - - - - - 33.1 1005.1 0.0
04/01:30pm N 10 15 - - - - - - - 33.6 1005.5 0.0
04/01:00pm N 5 12 - - - - - - - 34.7 1005.7 0.0
04/12:30pm NNW 7 11 - - - - - - - 33.8 1006.3 0.0
04/12:00pm N 9 14 - - - - - - - 33.9 1006.6 0.0
04/11:30am NNE 7 12 - - - - - - - 34.5 1007.1 0.0
04/11:00am ENE 5 9 - - - - - - - 34.6 1007.7 0.0
04/10:30am NNE 4 8 - - - - - - - 34.1 1008.3 0.0
04/10:00am WNW 3 5 - - - - - - - 33.8 1008.5 0.0
04/09:30am NE 4 5 - - - - - - - 33.0 1009.0 0.0
04/09:00am NNW 3 5 - - - - - - - 33.0 1009.3 0.0
04/08:30am S 4 5 - - - - - - - 32.1 1009.5 0.0
04/08:00am S 4 5 - - - - - - - 31.6 1009.5 0.0
04/07:30am SSW 4 5 - - - - - - - 30.8 1009.6 0.0
04/07:00am SSW 4 5 - - - - - - - 29.8 1009.2 0.0
04/06:30am S 3 5 - - - - - - - 28.6 1009.2 0.0
04/06:00am S 4 6 - - - - - - - 27.0 1008.7 0.0
04/05:30am SSE 3 6 - - - - - - - 25.7 1008.3 0.0
04/05:00am S 3 4 - - - - - - - 24.7 1007.9 0.0
04/04:30am CALM 0 0 - - - - - - - 24.5 1007.8 0.0
04/04:00am CALM 0 0 - - - - - - - 24.6 1007.6 0.0
04/03:30am CALM 0 0 - - - - - - - 24.7 1007.5 0.0
04/03:00am CALM 0 3 - - - - - - - 24.9 1007.8 0.0
04/02:30am SW 1 4 - - - - - - - 25.6 1007.9 0.0
04/02:00am CALM 0 0 - - - - - - - 25.8 1008.4 0.0
04/01:30am E 1 5 - - - - - - - 26.1 1008.4 0.0
04/01:00am NNE 7 16 - - - - - - - 26.7 1008.5 0.0
04/12:30am N 6 11 - - - - - - - 27.3 1008.6 0.0
04/12:00am NNE 10 18 - - - - - - - 28.7 1009.4 0.0
 
Date/Time
WST
Wind Sea
Height
m
Swell Vis
km
Cloud Weather Temp
°C
Press
MSL
hPa
Rain since
9am
mm
Dir  Spd
kts
Gust
kts
Height
m
Period
s
Dir
03/11:30pm NW 2 4 - - - - - - - 27.5 1009.6 0.0
03/11:00pm N 1 3 - - - - - - - 27.2 1009.5 0.0
03/10:30pm CALM 0 0 - - - - - - - 27.3 1009.7 0.0
03/10:00pm CALM 0 0 - - - - - - - 27.5 1009.7 0.0
03/09:30pm CALM 0 0 - - - - - - - 28.3 1009.9 0.0
03/09:00pm NNE 4 8 - - - - - - - 29.0 1009.7 0.0
03/08:30pm NE 4 6 - - - - - - - 29.1 1009.4 0.0
03/08:00pm NNE 5 9 - - - - - - - 29.6 1008.9 0.0
03/07:30pm NNE 6 9 - - - - - - - 29.9 1008.6 0.0
03/07:00pm NNE 7 12 - - - - - - - 30.6 1008.2 0.0
03/06:30pm NNE 6 11 - - - - - - - 31.1 1007.6 0.0
03/06:00pm NNE 7 11 - - - - - - - 31.8 1006.9 0.0
03/05:30pm NNE 8 11 - - - - - - - 32.6 1006.3 0.0
03/05:00pm NNE 9 15 - - - - - - - 33.7 1005.8 0.0
03/04:30pm NE 7 12 - - - - - - - 33.8 1005.5 0.0
03/04:00pm NNW 7 11 - - - - - - - 33.9 1005.3 0.0
03/03:30pm NNW 9 14 - - - - - - - 33.7 1005.1 0.0
03/03:00pm NW 9 14 - - - - - - - 34.2 1005.0 0.0
03/02:30pm N 9 12 - - - - - - - 34.2 1005.2 0.0
03/02:00pm NW 9 15 - - - - - - - 34.4 1005.6 0.0
03/01:30pm NNW 9 13 - - - - - - - 34.5 1005.7 0.0
03/01:00pm NNW 8 14 - - - - - - - 34.4 1006.2 0.0
03/12:30pm NE 7 13 - - - - - - - 35.6 1006.8 0.0
03/12:00pm NE 6 12 - - - - - - - 35.4 1007.3 0.0
03/11:30am E 6 9 - - - - - - - 35.2 1007.7 0.0
03/11:00am NE 5 9 - - - - - - - 34.4 1008.2 0.0
03/10:30am E 6 9 - - - - - - - 33.9 1008.7 0.0
03/10:00am ESE 4 7 - - - - - - - 33.3 1009.0 0.0
03/09:30am SE 5 9 - - - - - - - 31.4 1009.1 0.0
03/09:00am SSE 5 8 - - - - - - Recent precip. 30.2 1009.2 0.2
03/08:30am SSE 5 8 - - - - - - - 30.2 1009.2 0.2
03/08:00am SSE 5 8 - - - - - - - 28.8 1009.4 0.0
03/07:30am SSW 5 7 - - - - - - - 27.3 1009.7 0.0
03/07:00am S 4 6 - - - - - - - 27.0 1009.7 0.0
03/06:30am WSW 2 4 - - - - - - - 26.8 1009.9 0.0
03/06:00am S 4 6 - - - - - - - 26.3 1009.6 0.0
03/05:30am CALM 0 3 - - - - - - - 25.6 1009.7 0.0
03/05:00am SSE 4 7 - - - - - - - 25.8 1009.6 0.0
03/04:30am SSE 3 6 - - - - - - - 24.7 1008.7 0.0
03/04:00am NNE 1 4 - - - - - - - 24.9 1008.3 0.0
03/03:30am NE 6 12 - - - - - - - 25.4 1008.3 0.0
03/03:00am NE 9 17 - - - - - - - 25.7 1008.9 0.0
03/02:30am NE 12 24 - - - - - - - 26.7 1008.9 0.0
03/02:00am CALM 0 0 - - - - - - - 26.9 1007.8 0.0
03/01:30am CALM 0 0 - - - - - - - 27.3 1007.6 0.0
03/01:00am CALM 0 0 - - - - - - - 27.4 1008.0 0.0
03/12:30am NW 2 6 - - - - - - - 27.3 1008.0 0.0
03/12:00am ENE 1 3 - - - - - - - 27.5 1008.5 0.0
 
Date/Time
WST
Wind Sea
Height
m
Swell Vis
km
Cloud Weather Temp
°C
Press
MSL
hPa
Rain since
9am
mm
Dir  Spd
kts
Gust
kts
Height
m
Period
s
Dir
02/11:30pm CALM 0 0 - - - - - - - 27.7 1008.8 0.0
02/11:00pm CALM 0 0 - - - - - - - 28.1 1009.1 0.0
02/10:30pm CALM 0 0 - - - - - - - 28.0 1009.0 0.0
02/10:00pm CALM 0 3 - - - - - - - 28.8 1009.4 0.0
02/09:30pm ENE 2 3 - - - - - - - 29.2 1009.4 0.0
02/09:00pm NNE 3 4 - - - - - - - 29.2 1009.1 0.0
02/08:30pm NE 4 6 - - - - - - - 29.9 1008.8 0.0
02/08:00pm ENE 5 7 - - - - - - - 29.9 1008.4 0.0
02/07:30pm NE 5 8 - - - - - - - 30.4 1008.3 0.0
02/07:00pm E 4 6 - - - - - - - 30.4 1007.6 0.0
02/06:30pm ESE 4 6 - - - - - - - 30.6 1007.1 0.0
02/06:00pm E 5 8 - - - - - - - 31.3 1006.7 0.0
02/05:30pm E 6 11 - - - - - - - 31.8 1006.4 0.0
02/05:00pm ENE 6 9 - - - - - - - 32.4 1006.1 0.0
02/04:30pm ENE 4 8 - - - - - - - 33.5 1005.6 0.0
02/04:00pm SSE 5 9 - - - - - - - 34.0 1005.5 0.0
02/03:30pm ESE 5 8 - - - - - - - 34.4 1005.3 0.0
02/03:00pm SSE 5 9 - - - - - - - 34.2 1005.2 0.0
02/02:30pm S 2 4 - - - - - - - 33.9 1005.4 0.0
02/02:00pm SE 2 6 - - - - - - - 33.5 1005.6 0.0
02/01:30pm SE 5 9 - - - - - - - 33.2 1005.7 0.0
02/01:00pm SE 6 9 - - - - - - - 32.8 1006.3 0.0
02/12:30pm ESE 5 9 - - - - - - - 32.4 1006.8 0.0
02/12:00pm SE 5 10 - - - - - - - 30.7 1006.9 0.0
02/11:30am ESE 7 13 - - - - - - - 33.7 1007.9 0.0

Other formats

Comma delimited format used in spreadsheet applications
http://www.bom.gov.au/fwo/IDW60701/IDW60701.94100.axf

JavaScript Object Notation format (JSON) in row-major order
http://www.bom.gov.au/fwo/IDW60701/IDW60701.94100.json

Data quality

Most of these data are generated automatically and are frequently updated. Quality checks on data are not normally performed. It is possible for incorrect values to appear. Refer to information at About Latest Weather Observations and please check the disclaimer before using these data.